sensor_id;sensor_type;location;lat;lon;timestamp;P1;durP1;ratioP1;P2;durP2;ratioP2
58101;SDS011;52034;51.926;6.320;2023-06-19T00:00:35;8.63;;;6.43;;
58101;SDS011;52034;51.926;6.320;2023-06-19T00:01:36;7.37;;;6.40;;
58101;SDS011;52034;51.926;6.320;2023-06-19T00:02:36;8.00;;;7.17;;
58101;SDS011;52034;51.926;6.320;2023-06-19T00:03:37;8.67;;;6.47;;
58101;SDS011;52034;51.926;6.320;2023-06-19T00:04:37;9.00;;;7.00;;
58101;SDS011;52034;51.926;6.320;2023-06-19T00:05:37;7.60;;;6.90;;
58101;SDS011;52034;51.926;6.320;2023-06-19T00:06:38;8.57;;;7.00;;
58101;SDS011;52034;51.926;6.320;2023-06-19T00:07:38;8.70;;;7.37;;
58101;SDS011;52034;51.926;6.320;2023-06-19T00:08:39;9.30;;;6.60;;
58101;SDS011;52034;51.926;6.320;2023-06-19T00:09:41;9.32;;;7.30;;
58101;SDS011;52034;51.926;6.320;2023-06-19T00:10:41;8.90;;;6.77;;
58101;SDS011;52034;51.926;6.320;2023-06-19T00:11:42;8.53;;;7.10;;
58101;SDS011;52034;51.926;6.320;2023-06-19T00:12:42;8.07;;;7.23;;
58101;SDS011;52034;51.926;6.320;2023-06-19T00:13:42;7.67;;;6.80;;
58101;SDS011;52034;51.926;6.320;2023-06-19T00:14:42;8.17;;;7.27;;
58101;SDS011;52034;51.926;6.320;2023-06-19T00:15:43;7.73;;;6.93;;
58101;SDS011;52034;51.926;6.320;2023-06-19T00:16:43;11.57;;;7.47;;
58101;SDS011;52034;51.926;6.320;2023-06-19T00:17:44;12.05;;;7.45;;
58101;SDS011;52034;51.926;6.320;2023-06-19T00:18:47;8.60;;;7.80;;
58101;SDS011;52034;51.926;6.320;2023-06-19T00:19:48;8.23;;;7.15;;
58101;SDS011;52034;51.926;6.320;2023-06-19T00:20:48;7.93;;;7.13;;
58101;SDS011;52034;51.926;6.320;2023-06-19T00:21:49;7.40;;;6.80;;
58101;SDS011;52034;51.926;6.320;2023-06-19T00:22:49;7.43;;;6.73;;
58101;SDS011;52034;51.926;6.320;2023-06-19T00:23:52;8.25;;;6.75;;
58101;SDS011;52034;51.926;6.320;2023-06-19T00:24:52;7.30;;;6.63;;
58101;SDS011;52034;51.926;6.320;2023-06-19T00:25:53;7.63;;;6.30;;
58101;SDS011;52034;51.926;6.320;2023-06-19T00:26:53;8.23;;;6.20;;
58101;SDS011;52034;51.926;6.320;2023-06-19T00:27:53;7.57;;;6.73;;
58101;SDS011;52034;51.926;6.320;2023-06-19T00:28:54;7.10;;;6.40;;
58101;SDS011;52034;51.926;6.320;2023-06-19T00:29:55;6.43;;;5.82;;
58101;SDS011;52034;51.926;6.320;2023-06-19T00:31:01;9.07;;;6.55;;
58101;SDS011;52034;51.926;6.320;2023-06-19T00:32:02;7.03;;;6.43;;
58101;SDS011;52034;51.926;6.320;2023-06-19T00:33:02;9.27;;;5.73;;
58101;SDS011;52034;51.926;6.320;2023-06-19T00:34:03;10.27;;;6.10;;
58101;SDS011;52034;51.926;6.320;2023-06-19T00:35:03;6.43;;;5.83;;
58101;SDS011;52034;51.926;6.320;2023-06-19T00:36:08;10.88;;;5.85;;
58101;SDS011;52034;51.926;6.320;2023-06-19T00:37:12;7.28;;;5.60;;
58101;SDS011;52034;51.926;6.320;2023-06-19T00:38:13;7.75;;;6.15;;
58101;SDS011;52034;51.926;6.320;2023-06-19T00:39:13;6.10;;;5.50;;
58101;SDS011;52034;51.926;6.320;2023-06-19T00:40:16;7.13;;;6.20;;
58101;SDS011;52034;51.926;6.320;2023-06-19T00:41:25;7.78;;;5.82;;
58101;SDS011;52034;51.926;6.320;2023-06-19T00:42:27;10.20;;;6.30;;
58101;SDS011;52034;51.926;6.320;2023-06-19T00:43:28;6.23;;;5.57;;
58101;SDS011;52034;51.926;6.320;2023-06-19T00:44:28;6.37;;;5.57;;
58101;SDS011;52034;51.926;6.320;2023-06-19T00:45:29;7.60;;;5.93;;
58101;SDS011;52034;51.926;6.320;2023-06-19T00:46:30;6.50;;;5.95;;
58101;SDS011;52034;51.926;6.320;2023-06-19T00:47:33;6.53;;;5.93;;
58101;SDS011;52034;51.926;6.320;2023-06-19T00:48:34;6.32;;;5.72;;
58101;SDS011;52034;51.926;6.320;2023-06-19T00:49:35;6.72;;;6.07;;
58101;SDS011;52034;51.926;6.320;2023-06-19T00:50:36;6.50;;;5.87;;
58101;SDS011;52034;51.926;6.320;2023-06-19T00:51:37;7.03;;;5.88;;
58101;SDS011;52034;51.926;6.320;2023-06-19T00:52:38;6.15;;;5.63;;
58101;SDS011;52034;51.926;6.320;2023-06-19T00:53:39;7.07;;;6.32;;
58101;SDS011;52034;51.926;6.320;2023-06-19T00:54:39;6.50;;;5.50;;
58101;SDS011;52034;51.926;6.320;2023-06-19T00:55:40;7.10;;;5.57;;
58101;SDS011;52034;51.926;6.320;2023-06-19T00:56:42;6.60;;;6.00;;
58101;SDS011;52034;51.926;6.320;2023-06-19T00:57:44;6.68;;;5.88;;
58101;SDS011;52034;51.926;6.320;2023-06-19T00:58:45;5.82;;;5.30;;
58101;SDS011;52034;51.926;6.320;2023-06-19T00:59:48;6.60;;;5.63;;
58101;SDS011;52034;51.926;6.320;2023-06-19T01:00:49;8.63;;;5.93;;
58101;SDS011;52034;51.926;6.320;2023-06-19T01:01:50;6.05;;;5.30;;
58101;SDS011;52034;51.926;6.320;2023-06-19T01:02:50;5.97;;;5.33;;
58101;SDS011;52034;51.926;6.320;2023-06-19T01:03:50;6.33;;;5.40;;
58101;SDS011;52034;51.926;6.320;2023-06-19T01:04:52;7.18;;;5.55;;
58101;SDS011;52034;51.926;6.320;2023-06-19T01:05:53;5.88;;;5.28;;
58101;SDS011;52034;51.926;6.320;2023-06-19T01:06:56;7.60;;;6.05;;
58101;SDS011;52034;51.926;6.320;2023-06-19T01:08:06;6.45;;;5.85;;
58101;SDS011;52034;51.926;6.320;2023-06-19T01:09:13;6.90;;;5.55;;
58101;SDS011;52034;51.926;6.320;2023-06-19T01:10:18;6.63;;;5.65;;
58101;SDS011;52034;51.926;6.320;2023-06-19T01:11:22;7.10;;;5.93;;
58101;SDS011;52034;51.926;6.320;2023-06-19T01:12:28;6.82;;;5.60;;
58101;SDS011;52034;51.926;6.320;2023-06-19T01:15:00;7.15;;;5.22;;
58101;SDS011;52034;51.926;6.320;2023-06-19T01:16:03;6.65;;;5.47;;
58101;SDS011;52034;51.926;6.320;2023-06-19T01:17:04;6.80;;;5.80;;
58101;SDS011;52034;51.926;6.320;2023-06-19T01:18:05;7.00;;;5.78;;
58101;SDS011;52034;51.926;6.320;2023-06-19T01:19:06;6.07;;;5.47;;
58101;SDS011;52034;51.926;6.320;2023-06-19T01:20:10;6.13;;;5.50;;
58101;SDS011;52034;51.926;6.320;2023-06-19T01:21:12;6.93;;;5.57;;
58101;SDS011;52034;51.926;6.320;2023-06-19T01:22:30;8.80;;;6.03;;
58101;SDS011;52034;51.926;6.320;2023-06-19T01:23:34;6.32;;;5.72;;
58101;SDS011;52034;51.926;6.320;2023-06-19T01:24:34;6.70;;;5.30;;
58101;SDS011;52034;51.926;6.320;2023-06-19T01:25:35;9.23;;;5.82;;
58101;SDS011;52034;51.926;6.320;2023-06-19T01:26:35;6.53;;;5.50;;
58101;SDS011;52034;51.926;6.320;2023-06-19T01:27:38;8.27;;;5.50;;
58101;SDS011;52034;51.926;6.320;2023-06-19T01:29:41;8.65;;;5.63;;
58101;SDS011;52034;51.926;6.320;2023-06-19T01:30:41;6.47;;;5.83;;
58101;SDS011;52034;51.926;6.320;2023-06-19T01:31:45;6.35;;;5.75;;
58101;SDS011;52034;51.926;6.320;2023-06-19T01:33:03;6.07;;;5.50;;
58101;SDS011;52034;51.926;6.320;2023-06-19T01:34:11;8.05;;;5.78;;
58101;SDS011;52034;51.926;6.320;2023-06-19T01:35:15;8.18;;;5.40;;
58101;SDS011;52034;51.926;6.320;2023-06-19T01:36:20;6.60;;;5.30;;
58101;SDS011;52034;51.926;6.320;2023-06-19T01:37:21;6.13;;;5.47;;
58101;SDS011;52034;51.926;6.320;2023-06-19T01:38:27;7.40;;;5.93;;
58101;SDS011;52034;51.926;6.320;2023-06-19T01:40:29;6.57;;;5.97;;
58101;SDS011;52034;51.926;6.320;2023-06-19T01:41:32;7.50;;;6.07;;
58101;SDS011;52034;51.926;6.320;2023-06-19T01:42:32;8.37;;;5.40;;
58101;SDS011;52034;51.926;6.320;2023-06-19T01:43:34;8.88;;;5.88;;
58101;SDS011;52034;51.926;6.320;2023-06-19T01:44:35;6.82;;;5.40;;
58101;SDS011;52034;51.926;6.320;2023-06-19T01:45:36;9.83;;;6.00;;
58101;SDS011;52034;51.926;6.320;2023-06-19T01:46:36;6.93;;;5.70;;
58101;SDS011;52034;51.926;6.320;2023-06-19T01:47:37;7.72;;;6.32;;
58101;SDS011;52034;51.926;6.320;2023-06-19T01:48:38;7.87;;;5.77;;
58101;SDS011;52034;51.926;6.320;2023-06-19T01:49:40;6.40;;;5.72;;
58101;SDS011;52034;51.926;6.320;2023-06-19T01:50:47;9.17;;;5.97;;
58101;SDS011;52034;51.926;6.320;2023-06-19T01:51:48;9.82;;;5.70;;
58101;SDS011;52034;51.926;6.320;2023-06-19T01:52:49;6.20;;;5.60;;
58101;SDS011;52034;51.926;6.320;2023-06-19T01:53:50;6.55;;;5.65;;
58101;SDS011;52034;51.926;6.320;2023-06-19T01:54:50;6.63;;;5.83;;
58101;SDS011;52034;51.926;6.320;2023-06-19T01:55:51;9.75;;;5.72;;
58101;SDS011;52034;51.926;6.320;2023-06-19T01:56:52;7.43;;;5.60;;
58101;SDS011;52034;51.926;6.320;2023-06-19T01:57:52;5.97;;;5.37;;
58101;SDS011;52034;51.926;6.320;2023-06-19T01:58:52;6.07;;;5.30;;
58101;SDS011;52034;51.926;6.320;2023-06-19T01:59:55;7.53;;;6.18;;
58101;SDS011;52034;51.926;6.320;2023-06-19T02:00:56;5.53;;;5.03;;
58101;SDS011;52034;51.926;6.320;2023-06-19T02:01:56;6.07;;;5.43;;
58101;SDS011;52034;51.926;6.320;2023-06-19T02:02:56;7.73;;;5.70;;
58101;SDS011;52034;51.926;6.320;2023-06-19T02:03:57;6.15;;;5.55;;
58101;SDS011;52034;51.926;6.320;2023-06-19T02:04:57;8.60;;;5.77;;
58101;SDS011;52034;51.926;6.320;2023-06-19T02:05:58;6.03;;;4.87;;
58101;SDS011;52034;51.926;6.320;2023-06-19T02:07:00;7.82;;;5.50;;
58101;SDS011;52034;51.926;6.320;2023-06-19T02:08:01;5.93;;;5.33;;
58101;SDS011;52034;51.926;6.320;2023-06-19T02:09:01;6.17;;;5.50;;
58101;SDS011;52034;51.926;6.320;2023-06-19T02:10:01;15.70;;;5.33;;
58101;SDS011;52034;51.926;6.320;2023-06-19T02:11:02;6.33;;;5.47;;
58101;SDS011;52034;51.926;6.320;2023-06-19T02:12:02;8.27;;;5.73;;
58101;SDS011;52034;51.926;6.320;2023-06-19T02:13:03;7.03;;;5.80;;
58101;SDS011;52034;51.926;6.320;2023-06-19T02:14:03;6.47;;;5.40;;
58101;SDS011;52034;51.926;6.320;2023-06-19T02:15:03;6.17;;;5.57;;
58101;SDS011;52034;51.926;6.320;2023-06-19T02:16:05;6.25;;;5.57;;
58101;SDS011;52034;51.926;6.320;2023-06-19T02:17:07;6.15;;;5.55;;
58101;SDS011;52034;51.926;6.320;2023-06-19T02:18:09;6.82;;;5.45;;
58101;SDS011;52034;51.926;6.320;2023-06-19T02:19:10;6.67;;;5.97;;
58101;SDS011;52034;51.926;6.320;2023-06-19T02:20:12;6.18;;;5.57;;
58101;SDS011;52034;51.926;6.320;2023-06-19T02:21:13;5.97;;;5.33;;
58101;SDS011;52034;51.926;6.320;2023-06-19T02:22:13;6.93;;;5.70;;
58101;SDS011;52034;51.926;6.320;2023-06-19T02:23:13;5.90;;;5.40;;
58101;SDS011;52034;51.926;6.320;2023-06-19T02:24:14;7.97;;;5.80;;
58101;SDS011;52034;51.926;6.320;2023-06-19T02:25:14;7.73;;;5.60;;
58101;SDS011;52034;51.926;6.320;2023-06-19T02:26:17;6.68;;;5.60;;
58101;SDS011;52034;51.926;6.320;2023-06-19T02:27:19;11.55;;;6.05;;
58101;SDS011;52034;51.926;6.320;2023-06-19T02:28:19;6.10;;;5.33;;
58101;SDS011;52034;51.926;6.320;2023-06-19T02:29:20;7.37;;;5.93;;
58101;SDS011;52034;51.926;6.320;2023-06-19T02:30:20;6.47;;;5.50;;
58101;SDS011;52034;51.926;6.320;2023-06-19T02:31:21;6.83;;;5.80;;
58101;SDS011;52034;51.926;6.320;2023-06-19T02:32:22;7.65;;;5.68;;
58101;SDS011;52034;51.926;6.320;2023-06-19T02:33:22;7.90;;;5.70;;
58101;SDS011;52034;51.926;6.320;2023-06-19T02:34:22;6.17;;;5.57;;
58101;SDS011;52034;51.926;6.320;2023-06-19T02:35:24;5.82;;;5.20;;
58101;SDS011;52034;51.926;6.320;2023-06-19T02:36:24;6.43;;;5.83;;
58101;SDS011;52034;51.926;6.320;2023-06-19T02:37:25;6.50;;;5.68;;
58101;SDS011;52034;51.926;6.320;2023-06-19T02:38:26;8.67;;;6.07;;
58101;SDS011;52034;51.926;6.320;2023-06-19T02:39:26;6.53;;;5.93;;
58101;SDS011;52034;51.926;6.320;2023-06-19T02:40:27;7.97;;;5.55;;
58101;SDS011;52034;51.926;6.320;2023-06-19T02:41:27;8.70;;;5.67;;
58101;SDS011;52034;51.926;6.320;2023-06-19T02:42:28;6.03;;;5.53;;
58101;SDS011;52034;51.926;6.320;2023-06-19T02:43:28;7.43;;;6.20;;
58101;SDS011;52034;51.926;6.320;2023-06-19T02:44:29;6.40;;;5.80;;
58101;SDS011;52034;51.926;6.320;2023-06-19T02:45:29;7.17;;;5.60;;
58101;SDS011;52034;51.926;6.320;2023-06-19T02:46:30;6.23;;;5.57;;
58101;SDS011;52034;51.926;6.320;2023-06-19T02:47:30;6.80;;;6.20;;
58101;SDS011;52034;51.926;6.320;2023-06-19T02:48:34;6.47;;;5.45;;
58101;SDS011;52034;51.926;6.320;2023-06-19T02:49:34;5.77;;;5.20;;
58101;SDS011;52034;51.926;6.320;2023-06-19T02:50:34;8.70;;;5.80;;
58101;SDS011;52034;51.926;6.320;2023-06-19T02:51:35;6.27;;;5.67;;
58101;SDS011;52034;51.926;6.320;2023-06-19T02:52:35;7.63;;;5.37;;
58101;SDS011;52034;51.926;6.320;2023-06-19T02:53:36;7.20;;;4.97;;
58101;SDS011;52034;51.926;6.320;2023-06-19T02:54:36;5.80;;;4.63;;
58101;SDS011;52034;51.926;6.320;2023-06-19T02:55:36;7.30;;;5.03;;
58101;SDS011;52034;51.926;6.320;2023-06-19T02:56:37;6.22;;;4.57;;
58101;SDS011;52034;51.926;6.320;2023-06-19T02:57:38;5.00;;;4.45;;
58101;SDS011;52034;51.926;6.320;2023-06-19T02:58:38;8.07;;;4.70;;
58101;SDS011;52034;51.926;6.320;2023-06-19T02:59:39;7.17;;;4.27;;
58101;SDS011;52034;51.926;6.320;2023-06-19T03:00:39;9.57;;;4.70;;
58101;SDS011;52034;51.926;6.320;2023-06-19T03:01:40;4.63;;;4.10;;
58101;SDS011;52034;51.926;6.320;2023-06-19T03:02:40;5.10;;;4.60;;
58101;SDS011;52034;51.926;6.320;2023-06-19T03:03:43;5.03;;;4.30;;
58101;SDS011;52034;51.926;6.320;2023-06-19T03:04:46;6.85;;;4.38;;
58101;SDS011;52034;51.926;6.320;2023-06-19T03:05:46;5.70;;;4.10;;
58101;SDS011;52034;51.926;6.320;2023-06-19T03:06:47;5.27;;;4.17;;
58101;SDS011;52034;51.926;6.320;2023-06-19T03:07:47;4.77;;;4.37;;
58101;SDS011;52034;51.926;6.320;2023-06-19T03:08:47;6.03;;;4.53;;
58101;SDS011;52034;51.926;6.320;2023-06-19T03:09:48;5.47;;;4.47;;
58101;SDS011;52034;51.926;6.320;2023-06-19T03:10:48;5.07;;;4.20;;
58101;SDS011;52034;51.926;6.320;2023-06-19T03:11:48;8.27;;;4.50;;
58101;SDS011;52034;51.926;6.320;2023-06-19T03:12:49;5.63;;;4.17;;
58101;SDS011;52034;51.926;6.320;2023-06-19T03:13:50;4.53;;;4.07;;
58101;SDS011;52034;51.926;6.320;2023-06-19T03:14:53;10.20;;;4.70;;
58101;SDS011;52034;51.926;6.320;2023-06-19T03:15:53;5.87;;;4.50;;
58101;SDS011;52034;51.926;6.320;2023-06-19T03:16:53;7.33;;;4.37;;
58101;SDS011;52034;51.926;6.320;2023-06-19T03:17:54;5.60;;;4.50;;
58101;SDS011;52034;51.926;6.320;2023-06-19T03:19:57;4.40;;;3.95;;
58101;SDS011;52034;51.926;6.320;2023-06-19T03:20:58;5.93;;;4.40;;
58101;SDS011;52034;51.926;6.320;2023-06-19T03:21:58;10.90;;;4.70;;
58101;SDS011;52034;51.926;6.320;2023-06-19T03:22:59;6.87;;;4.47;;
58101;SDS011;52034;51.926;6.320;2023-06-19T03:24:00;7.75;;;4.55;;
58101;SDS011;52034;51.926;6.320;2023-06-19T03:25:00;5.13;;;4.00;;
58101;SDS011;52034;51.926;6.320;2023-06-19T03:26:01;5.23;;;3.90;;
58101;SDS011;52034;51.926;6.320;2023-06-19T03:28:04;7.25;;;4.43;;
58101;SDS011;52034;51.926;6.320;2023-06-19T03:29:05;8.02;;;4.40;;
58101;SDS011;52034;51.926;6.320;2023-06-19T03:30:22;6.60;;;4.05;;
58101;SDS011;52034;51.926;6.320;2023-06-19T03:31:25;5.28;;;4.30;;
58101;SDS011;52034;51.926;6.320;2023-06-19T03:32:26;5.32;;;3.92;;
58101;SDS011;52034;51.926;6.320;2023-06-19T03:33:26;5.50;;;4.17;;
58101;SDS011;52034;51.926;6.320;2023-06-19T03:34:26;4.80;;;4.27;;
58101;SDS011;52034;51.926;6.320;2023-06-19T03:35:28;7.25;;;3.88;;
58101;SDS011;52034;51.926;6.320;2023-06-19T03:36:30;5.68;;;3.95;;
58101;SDS011;52034;51.926;6.320;2023-06-19T03:37:38;5.97;;;3.72;;
58101;SDS011;52034;51.926;6.320;2023-06-19T03:38:38;6.23;;;3.80;;
58101;SDS011;52034;51.926;6.320;2023-06-19T03:39:39;5.00;;;3.70;;
58101;SDS011;52034;51.926;6.320;2023-06-19T03:40:42;4.30;;;3.90;;
58101;SDS011;52034;51.926;6.320;2023-06-19T03:41:45;5.47;;;4.13;;
58101;SDS011;52034;51.926;6.320;2023-06-19T03:42:45;4.60;;;4.20;;
58101;SDS011;52034;51.926;6.320;2023-06-19T03:43:47;8.13;;;4.55;;
58101;SDS011;52034;51.926;6.320;2023-06-19T03:44:47;5.37;;;4.03;;
58101;SDS011;52034;51.926;6.320;2023-06-19T03:45:48;5.73;;;4.07;;
58101;SDS011;52034;51.926;6.320;2023-06-19T03:46:48;5.17;;;3.80;;
58101;SDS011;52034;51.926;6.320;2023-06-19T03:47:50;4.68;;;4.00;;
58101;SDS011;52034;51.926;6.320;2023-06-19T03:48:51;4.37;;;3.93;;
58101;SDS011;52034;51.926;6.320;2023-06-19T03:49:51;6.60;;;3.70;;
58101;SDS011;52034;51.926;6.320;2023-06-19T03:50:52;4.57;;;4.07;;
58101;SDS011;52034;51.926;6.320;2023-06-19T03:51:53;3.50;;;3.20;;
58101;SDS011;52034;51.926;6.320;2023-06-19T03:52:54;3.97;;;3.58;;
58101;SDS011;52034;51.926;6.320;2023-06-19T03:53:54;4.50;;;3.57;;
58101;SDS011;52034;51.926;6.320;2023-06-19T03:54:55;4.53;;;3.80;;
58101;SDS011;52034;51.926;6.320;2023-06-19T03:55:55;6.37;;;3.70;;
58101;SDS011;52034;51.926;6.320;2023-06-19T03:56:55;4.33;;;3.70;;
58101;SDS011;52034;51.926;6.320;2023-06-19T03:57:56;5.90;;;3.80;;
58101;SDS011;52034;51.926;6.320;2023-06-19T03:58:56;4.10;;;3.40;;
58101;SDS011;52034;51.926;6.320;2023-06-19T03:59:57;4.17;;;3.63;;
58101;SDS011;52034;51.926;6.320;2023-06-19T04:00:57;5.80;;;3.70;;
58101;SDS011;52034;51.926;6.320;2023-06-19T04:01:58;5.43;;;3.20;;
58101;SDS011;52034;51.926;6.320;2023-06-19T04:02:58;4.87;;;4.20;;
58101;SDS011;52034;51.926;6.320;2023-06-19T04:03:58;4.30;;;3.73;;
58101;SDS011;52034;51.926;6.320;2023-06-19T04:04:59;3.93;;;3.53;;
58101;SDS011;52034;51.926;6.320;2023-06-19T04:06:00;4.80;;;3.63;;
58101;SDS011;52034;51.926;6.320;2023-06-19T04:07:00;7.17;;;3.40;;
58101;SDS011;52034;51.926;6.320;2023-06-19T04:08:00;4.60;;;4.00;;
58101;SDS011;52034;51.926;6.320;2023-06-19T04:09:01;5.37;;;3.77;;
58101;SDS011;52034;51.926;6.320;2023-06-19T04:10:01;4.43;;;3.83;;
58101;SDS011;52034;51.926;6.320;2023-06-19T04:11:01;4.90;;;3.50;;
58101;SDS011;52034;51.926;6.320;2023-06-19T04:12:02;6.40;;;3.40;;
58101;SDS011;52034;51.926;6.320;2023-06-19T04:13:03;3.80;;;3.47;;
58101;SDS011;52034;51.926;6.320;2023-06-19T04:14:04;4.13;;;3.15;;
58101;SDS011;52034;51.926;6.320;2023-06-19T04:15:05;4.63;;;3.57;;
58101;SDS011;52034;51.926;6.320;2023-06-19T04:16:07;4.15;;;3.40;;
58101;SDS011;52034;51.926;6.320;2023-06-19T04:17:07;4.40;;;3.50;;
58101;SDS011;52034;51.926;6.320;2023-06-19T04:18:07;4.10;;;3.20;;
58101;SDS011;52034;51.926;6.320;2023-06-19T04:19:08;4.23;;;3.40;;
58101;SDS011;52034;51.926;6.320;2023-06-19T04:20:08;5.10;;;3.27;;
58101;SDS011;52034;51.926;6.320;2023-06-19T04:21:11;4.68;;;3.40;;
58101;SDS011;52034;51.926;6.320;2023-06-19T04:22:12;4.13;;;3.35;;
58101;SDS011;52034;51.926;6.320;2023-06-19T04:23:13;5.90;;;3.40;;
58101;SDS011;52034;51.926;6.320;2023-06-19T04:24:13;4.20;;;3.13;;
58101;SDS011;52034;51.926;6.320;2023-06-19T04:25:14;4.03;;;3.43;;
58101;SDS011;52034;51.926;6.320;2023-06-19T04:26:14;4.17;;;3.30;;
58101;SDS011;52034;51.926;6.320;2023-06-19T04:27:14;3.57;;;3.17;;
58101;SDS011;52034;51.926;6.320;2023-06-19T04:28:15;4.97;;;3.50;;
58101;SDS011;52034;51.926;6.320;2023-06-19T04:29:15;6.40;;;3.53;;
58101;SDS011;52034;51.926;6.320;2023-06-19T04:30:16;3.80;;;3.50;;
58101;SDS011;52034;51.926;6.320;2023-06-19T04:31:17;5.67;;;3.40;;
58101;SDS011;52034;51.926;6.320;2023-06-19T04:32:20;4.75;;;3.67;;
58101;SDS011;52034;51.926;6.320;2023-06-19T04:33:20;4.13;;;3.30;;
58101;SDS011;52034;51.926;6.320;2023-06-19T04:34:21;6.90;;;3.47;;
58101;SDS011;52034;51.926;6.320;2023-06-19T04:35:21;5.40;;;3.67;;
58101;SDS011;52034;51.926;6.320;2023-06-19T04:36:23;4.07;;;3.40;;
58101;SDS011;52034;51.926;6.320;2023-06-19T04:37:24;4.47;;;3.20;;
58101;SDS011;52034;51.926;6.320;2023-06-19T04:38:24;4.80;;;3.20;;
58101;SDS011;52034;51.926;6.320;2023-06-19T04:39:24;3.73;;;3.43;;
58101;SDS011;52034;51.926;6.320;2023-06-19T04:40:25;4.80;;;4.07;;
58101;SDS011;52034;51.926;6.320;2023-06-19T04:41:25;5.67;;;3.50;;
58101;SDS011;52034;51.926;6.320;2023-06-19T04:42:26;4.47;;;3.57;;
58101;SDS011;52034;51.926;6.320;2023-06-19T04:43:27;4.65;;;3.55;;
58101;SDS011;52034;51.926;6.320;2023-06-19T04:44:27;4.47;;;3.80;;
58101;SDS011;52034;51.926;6.320;2023-06-19T04:45:33;3.72;;;3.40;;
58101;SDS011;52034;51.926;6.320;2023-06-19T04:46:34;3.87;;;3.27;;
58101;SDS011;52034;51.926;6.320;2023-06-19T04:47:34;5.83;;;3.50;;
58101;SDS011;52034;51.926;6.320;2023-06-19T04:48:35;5.97;;;3.63;;
58101;SDS011;52034;51.926;6.320;2023-06-19T04:49:36;5.53;;;3.83;;
58101;SDS011;52034;51.926;6.320;2023-06-19T04:50:37;5.07;;;3.70;;
58101;SDS011;52034;51.926;6.320;2023-06-19T04:51:37;4.85;;;3.90;;
58101;SDS011;52034;51.926;6.320;2023-06-19T04:52:38;4.10;;;3.67;;
58101;SDS011;52034;51.926;6.320;2023-06-19T04:53:38;5.27;;;4.10;;
58101;SDS011;52034;51.926;6.320;2023-06-19T04:54:39;6.20;;;3.60;;
58101;SDS011;52034;51.926;6.320;2023-06-19T04:55:39;4.33;;;3.93;;
58101;SDS011;52034;51.926;6.320;2023-06-19T04:56:39;5.37;;;3.57;;
58101;SDS011;52034;51.926;6.320;2023-06-19T04:57:40;4.13;;;3.73;;
58101;SDS011;52034;51.926;6.320;2023-06-19T04:58:41;6.10;;;4.00;;
58101;SDS011;52034;51.926;6.320;2023-06-19T04:59:46;6.05;;;3.97;;
58101;SDS011;52034;51.926;6.320;2023-06-19T05:00:46;5.40;;;3.97;;
58101;SDS011;52034;51.926;6.320;2023-06-19T05:01:51;5.28;;;4.00;;
58101;SDS011;52034;51.926;6.320;2023-06-19T05:02:54;4.95;;;4.10;;
58101;SDS011;52034;51.926;6.320;2023-06-19T05:03:59;4.65;;;3.97;;
58101;SDS011;52034;51.926;6.320;2023-06-19T05:04:59;7.40;;;4.20;;
58101;SDS011;52034;51.926;6.320;2023-06-19T05:06:02;4.50;;;3.72;;
58101;SDS011;52034;51.926;6.320;2023-06-19T05:07:03;5.77;;;4.30;;
58101;SDS011;52034;51.926;6.320;2023-06-19T05:08:03;4.23;;;3.83;;
58101;SDS011;52034;51.926;6.320;2023-06-19T05:09:04;6.43;;;4.40;;
58101;SDS011;52034;51.926;6.320;2023-06-19T05:10:05;4.37;;;3.97;;
58101;SDS011;52034;51.926;6.320;2023-06-19T05:11:06;5.07;;;4.03;;
58101;SDS011;52034;51.926;6.320;2023-06-19T05:12:06;6.80;;;4.10;;
58101;SDS011;52034;51.926;6.320;2023-06-19T05:13:07;9.07;;;4.97;;
58101;SDS011;52034;51.926;6.320;2023-06-19T05:14:07;7.67;;;4.73;;
58101;SDS011;52034;51.926;6.320;2023-06-19T05:15:08;5.20;;;4.10;;
58101;SDS011;52034;51.926;6.320;2023-06-19T05:16:09;5.32;;;3.97;;
58101;SDS011;52034;51.926;6.320;2023-06-19T05:17:09;6.87;;;4.33;;
58101;SDS011;52034;51.926;6.320;2023-06-19T05:18:09;4.90;;;4.10;;
58101;SDS011;52034;51.926;6.320;2023-06-19T05:19:10;5.43;;;4.70;;
58101;SDS011;52034;51.926;6.320;2023-06-19T05:20:10;6.03;;;4.30;;
58101;SDS011;52034;51.926;6.320;2023-06-19T05:21:11;6.15;;;4.40;;
58101;SDS011;52034;51.926;6.320;2023-06-19T05:22:12;6.43;;;4.82;;
58101;SDS011;52034;51.926;6.320;2023-06-19T05:23:13;6.55;;;4.60;;
58101;SDS011;52034;51.926;6.320;2023-06-19T05:24:13;8.90;;;5.00;;
58101;SDS011;52034;51.926;6.320;2023-06-19T05:25:14;5.80;;;4.67;;
58101;SDS011;52034;51.926;6.320;2023-06-19T05:26:14;9.57;;;4.97;;
58101;SDS011;52034;51.926;6.320;2023-06-19T05:27:15;8.33;;;4.70;;
58101;SDS011;52034;51.926;6.320;2023-06-19T05:28:15;5.37;;;4.13;;
58101;SDS011;52034;51.926;6.320;2023-06-19T05:29:15;5.63;;;4.80;;
58101;SDS011;52034;51.926;6.320;2023-06-19T05:30:16;5.60;;;5.10;;
58101;SDS011;52034;51.926;6.320;2023-06-19T05:31:16;6.53;;;4.17;;
58101;SDS011;52034;51.926;6.320;2023-06-19T05:32:17;7.10;;;4.90;;
58101;SDS011;52034;51.926;6.320;2023-06-19T05:33:17;5.03;;;4.53;;
58101;SDS011;52034;51.926;6.320;2023-06-19T05:34:18;5.47;;;4.37;;
58101;SDS011;52034;51.926;6.320;2023-06-19T05:35:18;4.87;;;4.47;;
58101;SDS011;52034;51.926;6.320;2023-06-19T05:36:18;5.60;;;4.63;;
58101;SDS011;52034;51.926;6.320;2023-06-19T05:37:19;5.63;;;4.30;;
58101;SDS011;52034;51.926;6.320;2023-06-19T05:38:19;5.00;;;4.43;;
58101;SDS011;52034;51.926;6.320;2023-06-19T05:39:20;5.22;;;4.72;;
58101;SDS011;52034;51.926;6.320;2023-06-19T05:40:21;5.47;;;4.23;;
58101;SDS011;52034;51.926;6.320;2023-06-19T05:41:21;5.17;;;4.50;;
58101;SDS011;52034;51.926;6.320;2023-06-19T05:42:22;6.67;;;4.77;;
58101;SDS011;52034;51.926;6.320;2023-06-19T05:43:22;6.03;;;4.40;;
58101;SDS011;52034;51.926;6.320;2023-06-19T05:44:24;5.30;;;4.50;;
58101;SDS011;52034;51.926;6.320;2023-06-19T05:45:25;5.53;;;4.20;;
58101;SDS011;52034;51.926;6.320;2023-06-19T05:46:25;5.97;;;4.50;;
58101;SDS011;52034;51.926;6.320;2023-06-19T05:47:25;4.80;;;4.13;;
58101;SDS011;52034;51.926;6.320;2023-06-19T05:48:25;6.47;;;4.60;;
58101;SDS011;52034;51.926;6.320;2023-06-19T05:49:26;8.03;;;4.47;;
58101;SDS011;52034;51.926;6.320;2023-06-19T05:50:26;5.27;;;4.67;;
58101;SDS011;52034;51.926;6.320;2023-06-19T05:51:27;7.77;;;4.80;;
58101;SDS011;52034;51.926;6.320;2023-06-19T05:52:27;5.83;;;4.67;;
58101;SDS011;52034;51.926;6.320;2023-06-19T05:53:27;4.53;;;4.13;;
58101;SDS011;52034;51.926;6.320;2023-06-19T05:54:28;5.73;;;4.47;;
58101;SDS011;52034;51.926;6.320;2023-06-19T05:55:28;5.13;;;4.13;;
58101;SDS011;52034;51.926;6.320;2023-06-19T05:56:31;5.40;;;4.87;;
58101;SDS011;52034;51.926;6.320;2023-06-19T05:57:36;5.25;;;4.75;;
58101;SDS011;52034;51.926;6.320;2023-06-19T05:58:37;6.07;;;4.93;;
58101;SDS011;52034;51.926;6.320;2023-06-19T05:59:37;6.67;;;4.70;;
58101;SDS011;52034;51.926;6.320;2023-06-19T06:00:38;5.50;;;5.00;;
58101;SDS011;52034;51.926;6.320;2023-06-19T06:01:38;5.63;;;4.87;;
58101;SDS011;52034;51.926;6.320;2023-06-19T06:02:38;8.07;;;5.27;;
58101;SDS011;52034;51.926;6.320;2023-06-19T06:03:39;6.73;;;5.33;;
58101;SDS011;52034;51.926;6.320;2023-06-19T06:04:39;6.53;;;5.10;;
58101;SDS011;52034;51.926;6.320;2023-06-19T06:05:39;6.70;;;5.80;;
58101;SDS011;52034;51.926;6.320;2023-06-19T06:06:40;6.33;;;5.60;;
58101;SDS011;52034;51.926;6.320;2023-06-19T06:07:40;8.87;;;6.17;;
58101;SDS011;52034;51.926;6.320;2023-06-19T06:08:40;6.97;;;5.60;;
58101;SDS011;52034;51.926;6.320;2023-06-19T06:09:41;9.10;;;5.47;;
58101;SDS011;52034;51.926;6.320;2023-06-19T06:10:42;8.73;;;5.70;;
58101;SDS011;52034;51.926;6.320;2023-06-19T06:11:43;6.18;;;5.60;;
58101;SDS011;52034;51.926;6.320;2023-06-19T06:12:43;6.70;;;5.73;;
58101;SDS011;52034;51.926;6.320;2023-06-19T06:13:44;7.87;;;5.53;;
58101;SDS011;52034;51.926;6.320;2023-06-19T06:14:44;7.87;;;5.43;;